Time;durP1;ratioP1;P1;durP2;ratioP2;P2;SDS_P1;SDS_P2;PMS_P1;PMS_P2;Temp;Humidity;BMP_temperature;BMP_pressure;BME280_temperature;BME280_humidity;BME280_pressure;Samples;Min_cycle;Max_cycle;Signal;HPM_P1;HPM_P2
2022/02/15 00:00:51;;;;;;;38.28;26.45;;;;;;;8.13;55.41;101197.31;4992594;28;20051;-63
2022/02/15 00:03:18;;;;;;;40.20;26.55;;;;;;;8.10;55.95;101193.06;4992536;28;20054;-63
2022/02/15 00:05:44;;;;;;;40.28;27.85;;;;;;;8.08;56.30;101194.88;4989837;28;20050;-63
2022/02/15 00:08:11;;;;;;;38.67;27.02;;;;;;;8.06;56.79;101188.84;4972883;28;20051;-63
2022/02/15 00:10:39;;;;;;;37.00;26.42;;;;;;;8.05;57.02;101187.19;4973393;28;20061;-63
2022/02/15 00:13:06;;;;;;;36.47;26.48;;;;;;;8.03;57.66;101175.06;4973105;28;20054;-64
2022/02/15 00:15:33;;;;;;;37.42;27.63;;;;;;;8.04;58.04;101174.16;4972886;28;20577;-64
2022/02/15 00:18:00;;;;;;;35.90;26.65;;;;;;;8.04;58.25;101172.41;4978134;28;20054;-64
2022/02/15 00:20:27;;;;;;;40.20;26.27;;;;;;;8.03;58.48;101162.84;4992400;28;20105;-63
2022/02/15 00:22:53;;;;;;;35.22;24.67;;;;;;;8.01;58.56;101162.91;4985903;28;20548;-64
2022/02/15 00:25:21;;;;;;;34.15;25.55;;;;;;;7.96;58.58;101154.41;4976839;28;20112;-65
2022/02/15 00:27:49;;;;;;;34.75;24.77;;;;;;;7.94;58.57;101155.38;4988330;28;20101;-64
2022/02/15 00:30:15;;;;;;;35.55;24.20;;;;;;;7.95;58.43;101146.63;4990235;28;20046;-64
2022/02/15 00:32:43;;;;;;;37.55;24.55;;;;;;;7.95;58.59;101147.47;4995327;28;20112;-65
2022/02/15 00:35:10;;;;;;;35.22;24.65;;;;;;;7.92;58.56;101144.13;4995469;28;20093;-64
2022/02/15 00:37:38;;;;;;;35.58;24.05;;;;;;;7.85;58.82;101138.28;4995164;28;20498;-64
2022/02/15 00:40:06;;;;;;;36.05;24.85;;;;;;;7.86;58.85;101137.38;4982438;28;20047;-64
2022/02/15 00:42:32;;;;;;;35.55;24.58;;;;;;;7.85;59.08;101120.84;4975616;28;20055;-64
2022/02/15 00:44:59;;;;;;;36.03;25.20;;;;;;;7.85;59.22;101131.28;4974785;28;20459;-64
2022/02/15 00:47:26;;;;;;;33.95;24.20;;;;;;;7.85;59.54;101133.06;4975568;28;20055;-64
2022/02/15 00:49:52;;;;;;;33.40;24.23;;;;;;;7.84;59.80;101139.19;4974466;28;20105;-64
2022/02/15 00:52:19;;;;;;;33.58;23.88;;;;;;;7.81;59.82;101134.94;4975539;28;20058;-64
2022/02/15 00:54:45;;;;;;;32.85;24.35;;;;;;;7.80;60.03;101121.94;4975580;28;20043;-64
2022/02/15 00:57:13;;;;;;;33.47;24.77;;;;;;;7.78;60.32;101121.16;4973774;28;20043;-64
2022/02/15 00:59:39;;;;;;;33.70;23.50;;;;;;;7.77;60.24;101122.03;4975564;28;20050;-64
2022/02/15 01:02:06;;;;;;;33.38;24.85;;;;;;;7.76;60.41;101123.00;4975346;28;20109;-65
2022/02/15 01:04:33;;;;;;;36.92;25.52;;;;;;;7.74;60.47;101122.19;4975261;28;20050;-64
2022/02/15 01:07:01;;;;;;;34.28;24.05;;;;;;;7.71;60.53;101120.53;4975260;28;20054;-64
2022/02/15 01:09:27;;;;;;;36.60;23.60;;;;;;;7.71;60.61;101112.69;4975313;28;20118;-64
2022/02/15 01:11:54;;;;;;;32.53;23.67;;;;;;;7.69;60.51;101106.69;4978095;28;20038;-64
2022/02/15 01:14:20;;;;;;;33.25;23.73;;;;;;;7.71;60.64;101112.69;4994484;28;20042;-64
2022/02/15 01:16:47;;;;;;;34.15;24.30;;;;;;;7.66;60.79;101107.66;4994496;28;20046;-64
2022/02/15 01:19:14;;;;;;;41.63;24.42;;;;;;;7.67;60.83;101106.75;4994308;28;20046;-64
2022/02/15 01:21:40;;;;;;;35.25;24.92;;;;;;;7.65;60.81;101098.09;4994455;28;20108;-64
2022/02/15 01:24:07;;;;;;;32.67;23.92;;;;;;;7.62;60.98;101093.00;4994374;28;20101;-64
2022/02/15 01:26:34;;;;;;;33.63;24.73;;;;;;;7.61;61.22;101093.91;4994302;28;20384;-64
2022/02/15 01:29:01;;;;;;;34.97;22.98;;;;;;;7.62;61.31;101094.78;4980609;28;20105;-64
2022/02/15 01:31:28;;;;;;;36.40;23.75;;;;;;;7.63;61.38;101080.78;4990821;28;20046;-65
2022/02/15 01:33:54;;;;;;;33.15;23.50;;;;;;;7.59;61.30;101074.88;4994126;28;20050;-64
2022/02/15 01:36:21;;;;;;;39.92;23.83;;;;;;;7.60;61.67;101076.53;4994027;28;20101;-65
2022/02/15 01:38:48;;;;;;;32.92;23.90;;;;;;;7.58;61.86;101065.31;4994148;28;20097;-64
2022/02/15 01:41:15;;;;;;;31.25;24.20;;;;;;;7.58;62.03;101065.31;4994008;28;20046;-64
2022/02/15 01:43:46;;;;;;;34.63;24.00;;;;;;;7.59;62.09;101056.59;4990328;28;20561;-64
2022/02/15 01:46:14;;;;;;;35.78;23.15;;;;;;;7.57;62.31;101055.78;4989972;28;20506;-64
2022/02/15 01:48:43;;;;;;;32.60;23.17;;;;;;;7.58;62.81;101047.03;4993762;28;20101;-64
2022/02/15 01:51:10;;;;;;;34.42;23.83;;;;;;;7.55;62.96;101033.25;4993800;28;20053;-65
2022/02/15 01:53:36;;;;;;;32.78;23.92;;;;;;;7.55;62.96;101028.03;4993674;28;20071;-64
2022/02/15 01:56:05;;;;;;;32.80;23.17;;;;;;;7.51;63.24;101028.13;4993699;28;20050;-64
2022/02/15 01:58:33;;;;;;;34.53;23.50;;;;;;;7.51;63.26;101022.06;4992918;28;20458;-64
2022/02/15 02:00:59;;;;;;;33.80;23.90;;;;;;;7.52;63.32;101021.16;4974517;28;20051;-64
2022/02/15 02:03:26;;;;;;;34.75;24.50;;;;;;;7.50;63.62;101023.84;4974370;28;20129;-64
2022/02/15 02:05:55;;;;;;;36.03;24.50;;;;;;;7.47;63.78;101023.09;4974147;28;20101;-65
2022/02/15 02:08:26;;;;;;;38.33;25.65;;;;;;;7.48;63.90;101012.59;4973920;28;20043;-64
2022/02/15 02:10:54;;;;;;;35.55;25.33;;;;;;;7.48;63.91;100998.69;4979356;28;20054;-65
2022/02/15 02:13:21;;;;;;;36.33;25.00;;;;;;;7.45;64.09;100994.44;4993320;28;20054;-65
2022/02/15 02:15:49;;;;;;;32.17;24.85;;;;;;;7.45;63.93;100989.22;4977995;28;20415;-65
2022/02/15 02:18:16;;;;;;;35.10;24.27;;;;;;;7.45;64.18;100990.97;4974024;28;20384;-65
2022/02/15 02:20:45;;;;;;;32.63;23.95;;;;;;;7.44;64.34;100979.69;4973876;28;20047;-65
2022/02/15 02:23:13;;;;;;;34.25;25.58;;;;;;;7.43;64.41;100971.91;4973709;28;20051;-64
2022/02/15 02:25:41;;;;;;;36.28;25.70;;;;;;;7.42;64.39;100973.66;4973931;28;20051;-64
2022/02/15 02:28:08;;;;;;;36.38;25.63;;;;;;;7.43;64.65;100974.53;4973921;28;20094;-64
2022/02/15 02:30:36;;;;;;;37.65;25.33;;;;;;;7.42;64.59;100965.84;4976729;28;20100;-64
2022/02/15 02:33:03;;;;;;;36.67;25.48;;;;;;;7.41;64.75;100965.91;4993037;28;20054;-65
2022/02/15 02:35:30;;;;;;;33.78;25.35;;;;;;;7.42;64.89;100965.00;4993090;28;20089;-64
2022/02/15 02:37:57;;;;;;;37.00;25.83;;;;;;;7.38;64.98;100961.66;4993039;28;20487;-64
2022/02/15 02:40:24;;;;;;;34.42;24.55;;;;;;;7.37;65.09;100965.16;4993050;28;20081;-65
2022/02/15 02:42:50;;;;;;;33.83;25.00;;;;;;;7.35;65.39;100966.97;4992981;28;20074;-65
2022/02/15 02:45:21;;;;;;;34.88;25.73;;;;;;;7.34;65.34;100965.31;4993098;28;20050;-65
2022/02/15 02:47:51;;;;;;;35.38;26.98;;;;;;;7.30;65.63;100959.34;4982238;28;20051;-65
2022/02/15 02:50:19;;;;;;;35.08;25.65;;;;;;;7.32;65.80;100951.44;4973659;28;20051;-64
2022/02/15 02:52:46;;;;;;;36.10;25.85;;;;;;;7.30;65.88;100951.53;4973424;28;20047;-64
2022/02/15 02:55:13;;;;;;;33.58;25.02;;;;;;;7.27;65.93;100951.63;4973507;28;20055;-65
2022/02/15 02:57:40;;;;;;;37.35;25.33;;;;;;;7.22;66.12;100948.34;4973436;28;20068;-64
2022/02/15 03:00:10;;;;;;;35.08;25.15;;;;;;;7.17;66.15;100945.94;4973601;28;20105;-64
2022/02/15 03:02:37;;;;;;;37.83;26.75;;;;;;;7.18;66.42;100939.78;4973293;28;20077;-64
2022/02/15 03:05:04;;;;;;;36.13;25.45;;;;;;;7.21;66.39;100938.81;4974297;28;20484;-65
2022/02/15 03:07:31;;;;;;;36.03;24.75;;;;;;;7.22;66.49;100940.50;4973273;28;20050;-65
2022/02/15 03:09:57;;;;;;;35.20;24.27;;;;;;;7.22;66.61;100939.69;4973607;28;20058;-64
2022/02/15 03:12:24;;;;;;;34.15;25.42;;;;;;;7.25;66.66;100931.72;4973256;28;20046;-64
2022/02/15 03:14:51;;;;;;;33.97;24.67;;;;;;;7.27;66.71;100932.50;4973503;28;20047;-64
2022/02/15 03:17:17;;;;;;;35.38;25.35;;;;;;;7.26;66.62;100921.22;4973233;28;20105;-64
2022/02/15 03:19:44;;;;;;;36.88;26.42;;;;;;;7.22;66.87;100924.00;4973499;28;20082;-64
2022/02/15 03:22:11;;;;;;;35.90;26.80;;;;;;;7.23;67.18;100915.28;4976920;28;20499;-64
2022/02/15 03:24:38;;;;;;;35.35;25.95;;;;;;;7.21;67.25;100930.97;4977350;28;20105;-64
2022/02/15 03:27:04;;;;;;;32.13;24.50;;;;;;;7.17;67.66;100942.47;4977238;28;20531;-64
2022/02/15 03:29:31;;;;;;;33.85;24.85;;;;;;;7.15;67.42;100946.91;4976887;28;20047;-64
2022/02/15 03:31:58;;;;;;;36.15;26.42;;;;;;;7.11;67.97;100940.94;4976760;28;20062;-65
2022/02/15 03:34:25;;;;;;;36.90;26.00;;;;;;;7.06;68.01;100949.84;4976782;28;20388;-65
2022/02/15 03:36:51;;;;;;;38.10;26.10;;;;;;;7.00;68.20;100933.53;4976950;28;20117;-65
2022/02/15 03:39:20;;;;;;;35.67;26.27;;;;;;;6.93;68.55;100937.31;4991818;28;20138;-64
2022/02/15 03:44:32;;;;;;;36.95;26.58;;;;;;;6.94;68.62;100931.16;4996084;28;20050;-65
2022/02/15 03:46:58;;;;;;;40.28;27.70;;;;;;;6.89;68.84;100914.00;4996055;28;20417;-64
2022/02/15 03:49:25;;;;;;;41.08;28.15;;;;;;;6.95;68.68;100919.81;4996052;28;20046;-64
2022/02/15 03:51:52;;;;;;;36.40;26.75;;;;;;;6.97;68.71;100911.91;4996232;28;20047;-64
2022/02/15 03:54:18;;;;;;;38.25;28.13;;;;;;;6.91;69.02;100915.63;4996030;28;20058;-64
2022/02/15 03:56:45;;;;;;;42.13;29.13;;;;;;;6.98;69.02;100924.94;4977267;28;20047;-64
2022/02/15 03:59:11;;;;;;;38.58;28.10;;;;;;;6.98;69.01;100911.00;4976563;28;20110;-65
2022/02/15 04:01:38;;;;;;;40.33;27.88;;;;;;;6.97;69.00;100902.34;4976428;28;20476;-64
2022/02/15 04:04:05;;;;;;;44.33;28.25;;;;;;;7.02;68.90;100902.16;4986542;28;20065;-65
2022/02/15 04:06:31;;;;;;;36.67;27.48;;;;;;;6.95;69.17;100911.97;4992792;28;20082;-64
2022/02/15 04:08:58;;;;;;;37.05;28.63;;;;;;;6.97;69.46;100902.34;4992894;28;20050;-64
2022/02/15 04:11:25;;;;;;;38.40;27.55;;;;;;;7.03;69.19;100912.56;4979397;28;20051;-64
2022/02/15 04:13:52;;;;;;;36.80;27.05;;;;;;;7.02;69.30;100903.03;4973236;28;20050;-64
2022/02/15 04:16:19;;;;;;;37.92;27.33;;;;;;;7.08;69.41;100906.28;4973026;28;20047;-64
2022/02/15 04:18:47;;;;;;;39.65;28.65;;;;;;;6.97;69.53;100898.88;4972899;28;20051;-64
2022/02/15 04:21:16;;;;;;;35.60;27.52;;;;;;;6.97;69.76;100896.25;4972830;28;20049;-64
2022/02/15 04:23:43;;;;;;;37.75;27.75;;;;;;;6.95;69.62;100890.28;4972961;28;20495;-64
2022/02/15 04:26:10;;;;;;;38.85;28.13;;;;;;;6.92;69.71;100893.84;4972140;28;20423;-64
2022/02/15 04:28:36;;;;;;;36.15;27.65;;;;;;;6.92;70.10;100885.16;4972768;28;20503;-64
2022/02/15 04:31:03;;;;;;;40.13;28.83;;;;;;;6.96;69.81;100885.00;4972230;28;20488;-64
2022/02/15 04:33:30;;;;;;;39.78;29.23;;;;;;;7.02;69.78;100889.09;4972542;28;20058;-64
2022/02/15 04:35:56;;;;;;;36.53;27.55;;;;;;;6.91;70.06;100879.09;4972619;28;20047;-64
2022/02/15 04:38:23;;;;;;;39.42;29.70;;;;;;;6.95;69.92;100885.91;4972501;28;20046;-64
2022/02/15 04:40:50;;;;;;;38.72;29.08;;;;;;;6.89;70.35;100877.47;4972787;28;20050;-64
2022/02/15 04:43:16;;;;;;;38.10;28.10;;;;;;;6.94;70.27;100868.53;4972079;28;20086;-64
2022/02/15 04:45:43;;;;;;;38.83;27.35;;;;;;;6.98;70.03;100864.91;4972519;28;20051;-64
2022/02/15 04:48:10;;;;;;;36.55;27.50;;;;;;;7.00;69.95;100868.31;4972381;28;20051;-64
2022/02/15 04:50:36;;;;;;;34.38;26.92;;;;;;;7.02;70.05;100873.44;4972262;28;20054;-64
2022/02/15 04:53:03;;;;;;;33.55;25.95;;;;;;;6.92;70.03;100875.59;4972479;28;20051;-64
2022/02/15 04:55:30;;;;;;;35.28;27.63;;;;;;;6.91;70.35;100876.50;4972530;28;20403;-64
2022/02/15 04:57:56;;;;;;;38.08;28.02;;;;;;;6.82;70.55;100875.09;4972420;28;20058;-64
2022/02/15 05:00:23;;;;;;;36.80;27.48;;;;;;;6.73;70.86;100875.47;4971794;28;20414;-64
2022/02/15 05:02:50;;;;;;;34.42;26.55;;;;;;;6.71;71.05;100866.84;4971993;28;20047;-64
2022/02/15 05:05:16;;;;;;;35.95;27.35;;;;;;;6.73;70.89;100874.59;4972203;28;20415;-64
2022/02/15 05:07:43;;;;;;;36.00;27.10;;;;;;;6.73;70.91;100870.25;4972219;28;20057;-64
2022/02/15 05:10:10;;;;;;;35.15;26.77;;;;;;;6.74;70.82;100868.47;4972158;28;20058;-63
2022/02/15 05:12:38;;;;;;;37.83;27.38;;;;;;;6.76;70.90;100864.91;4971966;28;20555;-63
2022/02/15 05:15:09;;;;;;;36.90;27.85;;;;;;;6.80;70.60;100869.06;4971771;28;20515;-64
2022/02/15 05:17:43;;;;;;;37.92;27.90;;;;;;;6.81;70.62;100860.34;4971488;28;20047;-64
2022/02/15 05:20:12;;;;;;;37.65;28.63;;;;;;;6.79;70.75;100875.22;4971656;28;20050;-64
2022/02/15 05:22:39;;;;;;;38.55;28.88;;;;;;;6.77;70.70;100873.59;4971821;28;20162;-64
2022/02/15 05:25:06;;;;;;;37.20;27.38;;;;;;;6.70;71.00;100876.44;4971833;28;20061;-64
2022/02/15 05:27:33;;;;;;;37.03;28.25;;;;;;;6.66;71.16;100869.59;4971631;28;20062;-64
2022/02/15 05:29:59;;;;;;;36.88;27.92;;;;;;;6.60;71.00;100861.19;4971654;28;20043;-63
2022/02/15 05:32:27;;;;;;;38.72;28.48;;;;;;;6.60;71.08;100856.84;4971543;28;20484;-63
2022/02/15 05:34:54;;;;;;;35.92;28.02;;;;;;;6.61;70.83;100853.28;4977084;28;20046;-64
2022/02/15 05:37:21;;;;;;;35.25;26.80;;;;;;;6.66;70.76;100851.34;4990840;28;20533;-64
2022/02/15 05:39:48;;;;;;;32.88;26.02;;;;;;;6.67;70.74;100840.03;4990949;28;20054;-64
2022/02/15 05:42:14;;;;;;;33.95;25.75;;;;;;;6.73;70.68;100838.94;4990718;28;20549;-63
2022/02/15 05:44:41;;;;;;;36.45;26.23;;;;;;;6.69;70.61;100827.78;4990295;28;20577;-64
2022/02/15 05:47:07;;;;;;;36.60;25.95;;;;;;;6.73;70.80;100828.50;4990643;28;20458;-63
2022/02/15 05:50:49;;;;;;;35.35;26.73;;;;;;;6.75;70.54;100818.03;4990863;28;20487;-63
2022/02/15 05:52:21;;;;;;;32.80;25.80;;;;;;;6.77;70.70;100822.25;4989137;28;20120;-64
2022/02/15 05:54:47;;;;;;;32.38;25.02;;;;;;;6.72;70.86;100818.13;4990849;28;20085;-63
2022/02/15 05:57:14;;;;;;;32.22;24.92;;;;;;;6.76;70.95;100814.50;4990380;28;20093;-64
2022/02/15 05:59:41;;;;;;;33.22;25.23;;;;;;;6.76;70.65;100806.69;4990559;28;20047;-64
2022/02/15 06:02:09;;;;;;;29.95;23.80;;;;;;;6.70;70.93;100806.03;4990412;28;20054;-64
2022/02/15 06:04:36;;;;;;;30.58;23.60;;;;;;;6.68;70.86;100807.00;4990488;28;20054;-64
2022/02/15 06:07:04;;;;;;;28.42;24.13;;;;;;;6.69;70.79;100809.53;4989073;28;20053;-63
2022/02/15 06:09:32;;;;;;;32.30;23.77;;;;;;;6.67;70.92;100793.09;4984429;28;20435;-62
2022/02/15 06:11:59;;;;;;;32.75;24.05;;;;;;;6.59;71.03;100791.69;4990389;28;20470;-63
2022/02/15 06:14:25;;;;;;;30.60;23.80;;;;;;;6.63;71.04;100801.09;4990091;28;20438;-62
2022/02/15 06:16:52;;;;;;;30.88;23.83;;;;;;;6.51;71.36;100797.19;4990404;28;20047;-62
2022/02/15 06:19:19;;;;;;;30.73;23.80;;;;;;;6.47;71.32;100801.69;4990510;28;20058;-62
2022/02/15 06:21:47;;;;;;;31.38;23.90;;;;;;;6.43;71.14;100802.72;4990419;28;20061;-62
2022/02/15 06:24:14;;;;;;;31.80;24.23;;;;;;;6.42;71.51;100794.97;4990422;28;20050;-63
2022/02/15 06:27:01;;;;;;;31.90;24.67;;;;;;;6.46;70.96;100801.75;4989367;28;20141;-62
2022/02/15 06:29:29;;;;;;;30.80;24.52;;;;;;;6.51;70.90;100794.59;4990355;28;20049;-63
2022/02/15 06:31:56;;;;;;;31.58;24.35;;;;;;;6.33;71.09;100797.00;4989921;28;20100;-63
2022/02/15 06:34:24;;;;;;;28.65;22.58;;;;;;;6.29;71.22;100789.38;4989762;28;20100;-63
2022/02/15 06:36:54;;;;;;;32.15;23.90;;;;;;;6.21;71.29;100787.06;4990226;28;20050;-63
2022/02/15 06:39:21;;;;;;;33.28;25.33;;;;;;;6.13;71.40;100784.75;4990339;28;20042;-63
2022/02/15 06:41:48;;;;;;;31.17;24.40;;;;;;;6.07;71.59;100776.28;4990126;28;20054;-63
2022/02/15 06:44:15;;;;;;;31.58;24.77;;;;;;;6.10;71.30;100784.00;4974429;28;20051;-64
2022/02/15 06:46:42;;;;;;;32.03;24.20;;;;;;;6.10;71.07;100784.84;4987828;28;20414;-63
2022/02/15 06:49:08;;;;;;;31.25;25.25;;;;;;;6.05;71.04;100799.78;4990259;28;20097;-64
2022/02/15 06:51:35;;;;;;;31.17;22.63;;;;;;;6.79;70.29;100796.97;4989233;28;20054;-62
2022/02/15 06:54:02;;;;;;;29.00;24.02;;;;;;;6.43;70.87;100801.88;4989671;28;20050;-63
2022/02/15 06:56:28;;;;;;;31.30;24.95;;;;;;;6.33;70.72;100794.38;4988921;28;20047;-62
2022/02/15 06:58:56;;;;;;;32.58;24.15;;;;;;;6.33;70.40;100801.38;4986140;28;20046;-62
2022/02/15 07:01:22;;;;;;;32.30;24.67;;;;;;;6.20;70.46;100801.81;4989635;28;20050;-63
2022/02/15 07:03:49;;;;;;;31.02;25.13;;;;;;;6.22;70.22;100804.38;4989609;28;20054;-63
2022/02/15 07:06:18;;;;;;;30.15;24.85;;;;;;;6.16;70.18;100800.25;4989627;28;20046;-63
2022/02/15 07:08:45;;;;;;;30.25;24.20;;;;;;;5.98;70.61;100803.50;4989345;28;20062;-62
2022/02/15 07:11:12;;;;;;;33.03;25.55;;;;;;;5.82;71.17;100796.25;4988419;28;20054;-63
2022/02/15 07:13:39;;;;;;;33.45;25.20;;;;;;;5.77;70.86;100800.75;4986543;28;20557;-63
2022/02/15 07:16:06;;;;;;;31.33;25.05;;;;;;;5.69;71.13;100798.44;4971945;28;20047;-63
2022/02/15 07:18:32;;;;;;;30.67;24.08;;;;;;;5.68;70.83;100811.50;4970206;28;20066;-63
2022/02/15 07:20:59;;;;;;;29.55;23.58;;;;;;;5.54;71.33;100802.41;4969784;28;20051;-63
2022/02/15 07:23:26;;;;;;;28.70;24.35;;;;;;;5.54;71.25;100805.03;4970181;28;20053;-62
2022/02/15 07:25:52;;;;;;;29.90;23.23;;;;;;;5.52;71.11;100805.97;4970096;28;20047;-62
2022/02/15 07:28:19;;;;;;;29.85;23.88;;;;;;;5.50;71.34;100813.84;4969090;28;20134;-63
2022/02/15 07:30:46;;;;;;;27.00;22.67;;;;;;;5.49;71.02;100819.94;4969394;28;20465;-62
2022/02/15 07:33:12;;;;;;;27.92;23.52;;;;;;;5.46;71.35;100811.38;4969800;28;20054;-62
2022/02/15 07:35:39;;;;;;;30.02;23.08;;;;;;;5.46;70.91;100814.00;4969514;28;20050;-62
2022/02/15 07:38:06;;;;;;;29.88;23.30;;;;;;;5.46;71.18;100822.66;4974826;28;20043;-63
2022/02/15 07:40:32;;;;;;;27.08;23.00;;;;;;;5.45;71.03;100820.13;4988840;28;20119;-63
2022/02/15 07:42:59;;;;;;;30.10;23.67;;;;;;;5.50;70.87;100819.06;4989011;28;20046;-63
2022/02/15 07:45:26;;;;;;;27.88;22.13;;;;;;;5.41;71.13;100821.97;4989163;28;20058;-62
2022/02/15 07:47:53;;;;;;;28.60;22.42;;;;;;;5.47;70.96;100826.09;4975071;28;20687;-62
2022/02/15 07:50:22;;;;;;;28.08;22.85;;;;;;;5.43;71.03;100824.53;4969397;28;20503;-62
2022/02/15 07:52:54;;;;;;;28.00;21.55;;;;;;;5.44;71.17;100819.25;4969551;28;20050;-63
2022/02/15 07:55:21;;;;;;;27.67;22.75;;;;;;;5.44;71.15;100821.03;4968872;28;20051;-62
2022/02/15 07:57:48;;;;;;;27.83;22.50;;;;;;;5.47;71.15;100823.50;4969828;28;20046;-62
2022/02/15 08:00:21;;;;;;;26.88;21.85;;;;;;;5.49;71.31;100826.91;4969380;28;20047;-62
2022/02/15 08:02:50;;;;;;;28.35;21.90;;;;;;;5.46;70.99;100827.00;4970102;28;20458;-62
2022/02/15 08:05:18;;;;;;;26.75;22.63;;;;;;;5.50;70.85;100828.63;4967911;28;20054;-62
2022/02/15 08:07:57;;;;;;;33.25;23.20;;;;;;;5.46;71.27;100833.09;4976432;28;20050;-63
2022/02/15 08:10:26;;;;;;;31.42;24.40;;;;;;;5.63;71.02;100835.09;4990165;28;20538;-62
2022/02/15 08:12:57;;;;;;;28.52;23.50;;;;;;;5.54;71.02;100830.22;4991311;28;20470;-62
2022/02/15 08:15:30;;;;;;;27.08;22.42;;;;;;;5.39;71.53;100832.41;4984798;28;20505;-63
2022/02/15 08:17:59;;;;;;;30.35;22.88;;;;;;;5.42;71.97;100828.84;4983166;28;20647;-62
2022/02/15 08:20:30;;;;;;;31.65;23.30;;;;;;;5.54;71.30;100833.66;4982729;28;20553;-62
2022/02/15 08:22:57;;;;;;;27.90;22.40;;;;;;;5.59;71.39;100824.81;4982778;28;20507;-62
2022/02/15 08:25:24;;;;;;;27.40;22.75;;;;;;;5.56;71.53;100833.59;4981002;28;20130;-62
2022/02/15 08:27:51;;;;;;;31.30;23.77;;;;;;;5.56;71.44;100831.84;4981276;28;20462;-62
2022/02/15 08:30:18;;;;;;;28.10;22.50;;;;;;;5.55;71.48;100834.53;4979656;28;20055;-63
2022/02/15 08:32:45;;;;;;;31.80;24.05;;;;;;;5.64;71.26;100829.00;4972521;28;20054;-62
2022/02/15 08:35:14;;;;;;;29.70;23.75;;;;;;;5.58;71.50;100836.16;4981477;28;20058;-62
2022/02/15 08:37:41;;;;;;;29.63;23.52;;;;;;;5.65;71.28;100838.50;4979471;28;20789;-62
2022/02/15 08:40:13;;;;;;;30.25;23.27;;;;;;;5.54;71.54;100836.25;4984942;28;20462;-60
2022/02/15 08:43:00;;;;;;;27.77;22.17;;;;;;;5.46;71.83;100837.41;4981277;28;20074;-60
2022/02/15 08:45:27;;;;;;;26.67;21.48;;;;;;;5.44;72.00;100844.44;4980209;28;20097;-60
2022/02/15 08:47:54;;;;;;;28.08;22.83;;;;;;;5.52;72.04;100842.41;4982138;28;20042;-60
2022/02/15 08:50:21;;;;;;;28.15;23.10;;;;;;;5.49;71.95;100843.38;4989231;28;20051;-60
2022/02/15 08:52:48;;;;;;;99.38;59.85;;;;;;;5.53;71.88;100841.53;4974940;28;20050;-60
2022/02/15 08:55:15;;;;;;;48.75;34.30;;;;;;;5.56;71.56;100844.88;4983137;28;20062;-60
2022/02/15 08:57:44;;;;;;;81.53;55.33;;;;;;;5.51;71.92;100843.31;4989528;28;20046;-60
2022/02/15 09:00:14;;;;;;;155.15;95.60;;;;;;;5.49;71.99;100845.97;4990783;28;20057;-59
2022/02/15 09:02:41;;;;;;;50.72;40.53;;;;;;;5.54;72.03;100836.25;4990480;28;20454;-62
2022/02/15 09:05:09;;;;;;;215.65;125.95;;;;;;;5.53;72.05;100842.34;4990353;28;20479;-63
2022/02/15 09:07:35;;;;;;;148.05;98.53;;;;;;;5.60;72.20;100842.16;4984278;28;20512;-62
2022/02/15 09:10:03;;;;;;;203.45;130.13;;;;;;;5.73;71.84;100838.22;4989973;28;20553;-62
2022/02/15 09:12:30;;;;;;;174.25;116.07;;;;;;;5.71;71.97;100846.09;4985764;28;20057;-62
2022/02/15 09:14:57;;;;;;;258.52;157.80;;;;;;;5.65;72.34;100848.06;4979495;28;20046;-62
2022/02/15 09:17:23;;;;;;;145.48;96.70;;;;;;;5.63;72.41;100844.66;4979920;28;20101;-63
2022/02/15 09:19:50;;;;;;;213.60;129.07;;;;;;;6.01;71.07;100838.13;4980903;28;20597;-63
2022/02/15 09:22:17;;;;;;;100.38;70.93;;;;;;;5.81;71.81;100844.00;4982110;28;20046;-63
2022/02/15 09:24:46;;;;;;;117.25;82.43;;;;;;;5.76;72.17;100852.91;4986147;28;20050;-64
2022/02/15 09:27:13;;;;;;;205.45;122.30;;;;;;;5.69;72.24;100850.50;4990771;28;20042;-64
2022/02/15 09:29:40;;;;;;;164.50;106.50;;;;;;;5.69;72.40;100853.09;4970841;28;20055;-61
2022/02/15 09:32:07;;;;;;;111.57;84.75;;;;;;;5.66;72.53;100848.03;4971117;28;20109;-61
2022/02/15 09:34:33;;;;;;;44.05;33.72;;;;;;;5.65;72.35;100846.31;4970961;28;20062;-62
2022/02/15 09:37:01;;;;;;;39.80;30.67;;;;;;;5.61;72.40;100854.28;4971249;28;20051;-61
2022/02/15 09:39:28;;;;;;;72.50;52.42;;;;;;;5.63;72.58;100858.53;4988741;28;20960;-61
2022/02/15 09:41:57;;;;;;;79.88;53.72;;;;;;;5.66;72.70;100860.16;4990877;28;20251;-61
2022/02/15 09:44:23;;;;;;;60.50;46.55;;;;;;;5.62;72.60;100862.03;4980909;28;20102;-61
2022/02/15 09:46:51;;;;;;;57.60;43.42;;;;;;;5.56;72.72;100863.09;4971296;28;20055;-63
2022/02/15 09:52:04;;;;;;;40.33;31.52;;;;;;;5.57;73.01;100869.13;4974553;28;20491;-60
2022/02/15 09:54:31;;;;;;;39.95;31.52;;;;;;;5.63;73.06;100865.50;4989750;28;20476;-61
2022/02/15 09:56:58;;;;;;;39.97;30.45;;;;;;;5.66;72.69;100860.16;4988036;28;20557;-62
2022/02/15 09:59:25;;;;;;;45.72;32.20;;;;;;;5.66;72.77;100870.59;4987234;28;20042;-61
2022/02/15 10:01:53;;;;;;;56.83;44.42;;;;;;;5.62;72.94;100872.44;4989968;28;20046;-61
2022/02/15 10:04:33;;;;;;;54.08;42.17;;;;;;;5.62;73.05;100869.00;4978959;28;20100;-62
2022/02/15 10:07:05;;;;;;;39.50;32.00;;;;;;;5.76;72.64;100866.75;4980917;28;20506;-61
2022/02/15 10:09:32;;;;;;;41.03;32.70;;;;;;;5.71;72.53;100869.53;4980049;28;20051;-61
2022/02/15 10:12:11;;;;;;;41.30;31.73;;;;;;;5.78;72.77;100877.97;4979668;28;20053;-61
2022/02/15 10:14:40;;;;;;;55.38;39.47;;;;;;;5.76;72.90;100869.34;4981195;28;20047;-61
2022/02/15 10:17:12;;;;;;;51.45;35.50;;;;;;;5.75;72.91;100880.66;4985218;28;20046;-61
2022/02/15 10:19:40;;;;;;;58.65;38.15;;;;;;;5.73;73.05;100882.50;4987007;28;20050;-61
2022/02/15 10:22:08;;;;;;;77.32;48.22;;;;;;;5.70;73.08;100895.59;4989392;28;20311;-61
2022/02/15 10:24:38;;;;;;;100.05;58.30;;;;;;;5.68;73.18;100898.25;4989544;28;20053;-61
2022/02/15 10:27:11;;;;;;;99.00;53.67;;;;;;;5.66;73.08;100902.69;4989687;28;20458;-61
2022/02/15 10:29:40;;;;;;;110.07;67.88;;;;;;;5.66;73.25;100901.81;4989191;28;20791;-61
2022/02/15 10:32:13;;;;;;;122.80;87.43;;;;;;;5.63;73.10;100904.53;4988044;28;20100;-61
2022/02/15 10:35:06;;;;;;;66.00;52.60;;;;;;;5.60;73.37;100907.22;4989260;28;20117;-62
2022/02/15 10:37:33;;;;;;;86.68;61.10;;;;;;;5.61;73.42;100912.41;4987472;28;20046;-62
2022/02/15 10:40:06;;;;;;;106.43;70.57;;;;;;;5.65;73.48;100915.72;4988515;28;20077;-62
2022/02/15 10:42:36;;;;;;;118.75;81.40;;;;;;;5.61;73.72;100917.63;4988583;28;20509;-61
2022/02/15 10:45:09;;;;;;;67.30;46.95;;;;;;;5.66;73.65;100915.72;4989426;28;20087;-64
2022/02/15 10:47:38;;;;;;;43.15;31.60;;;;;;;5.68;73.43;100921.69;4989378;28;20046;-62
2022/02/15 10:50:10;;;;;;;110.45;68.18;;;;;;;5.62;73.33;100924.50;4971811;28;20051;-61
2022/02/15 10:52:37;;;;;;;44.38;35.50;;;;;;;5.60;73.77;100923.72;4969358;28;20054;-62
2022/02/15 10:55:05;;;;;;;37.42;29.67;;;;;;;5.60;73.54;100928.94;4969740;28;20105;-62
2022/02/15 10:57:32;;;;;;;34.92;27.25;;;;;;;5.63;73.66;100930.56;4978926;28;20050;-62
2022/02/15 11:00:04;;;;;;;84.30;57.42;;;;;;;5.64;73.38;100934.88;4988855;28;20121;-61
2022/02/15 11:02:37;;;;;;;43.00;38.22;;;;;;;5.54;73.64;100927.34;4986499;28;20058;-62
2022/02/15 11:05:07;;;;;;;41.30;32.15;;;;;;;5.60;73.49;100931.53;4984780;28;20570;-61
2022/02/15 11:07:36;;;;;;;40.92;32.45;;;;;;;5.63;73.78;100933.19;4981782;28;20046;-61
2022/02/15 11:10:14;;;;;;;91.05;58.45;;;;;;;5.66;73.52;100928.72;4980364;28;20058;-61
2022/02/15 11:12:47;;;;;;;84.57;57.03;;;;;;;5.66;73.46;100930.47;4969488;28;20488;-61
2022/02/15 11:15:20;;;;;;;51.65;43.88;;;;;;;5.65;73.54;100932.22;4969761;28;20146;-61
2022/02/15 11:17:52;;;;;;;72.40;57.88;;;;;;;5.71;73.58;100920.75;4972344;28;20061;-61
2022/02/15 11:20:23;;;;;;;50.33;37.72;;;;;;;5.63;73.87;100935.78;4977851;28;20050;-61
2022/02/15 11:22:53;;;;;;;76.10;53.85;;;;;;;5.64;73.81;100937.50;4979180;28;20516;-61
2022/02/15 11:25:30;;;;;;;76.00;53.42;;;;;;;5.68;73.81;100937.31;4979572;28;20121;-61